createdAt,value
2022-11-06T00:04:12.128Z,100896.47
2022-11-06T00:14:15.478Z,100888.00
2022-11-06T00:24:19.943Z,100877.81
2022-11-06T00:34:22.979Z,100874.34
2022-11-06T00:44:27.501Z,100871.78
2022-11-06T00:54:30.641Z,100882.78
2022-11-06T01:04:35.109Z,100899.09
2022-11-06T01:14:40.449Z,100905.06
2022-11-06T01:24:45.109Z,100895.84
2022-11-06T01:34:50.451Z,100891.66
2022-11-06T01:45:30.589Z,100886.94
2022-11-06T01:55:39.130Z,100873.19
2022-11-06T02:05:43.760Z,100863.78
2022-11-06T02:15:51.187Z,100856.81
2022-11-06T02:26:08.700Z,100858.34
2022-11-06T02:36:17.563Z,100853.53
2022-11-06T02:46:26.499Z,100844.44
2022-11-06T02:56:36.769Z,100832.34
2022-11-06T03:06:44.904Z,100838.88
2022-11-06T03:16:55.887Z,100824.34
2022-11-06T03:27:02.149Z,100804.78
2022-11-06T03:37:12.354Z,100806.47
2022-11-06T03:47:22.384Z,100825.38
2022-11-06T03:57:35.526Z,100849.38
2022-11-06T04:07:42.981Z,100851.94
2022-11-06T04:17:47.325Z,100823.84
2022-11-06T04:28:04.385Z,100833.16
2022-11-06T04:38:14.358Z,100822.75
2022-11-06T04:48:18.979Z,100799.81
2022-11-06T04:58:23.402Z,100790.25
2022-11-06T05:08:26.351Z,100761.97
2022-11-06T05:18:30.626Z,100745.50
2022-11-06T05:28:33.823Z,100724.91
2022-11-06T05:38:38.101Z,100717.19
2022-11-06T05:48:41.183Z,100691.47
2022-11-06T05:58:45.585Z,100670.81
2022-11-06T06:08:48.573Z,100672.38
2022-11-06T06:18:52.941Z,100660.81
2022-11-06T06:28:55.956Z,100642.09
2022-11-06T06:39:00.361Z,100665.41
2022-11-06T06:49:03.602Z,100666.28
2022-11-06T06:59:07.923Z,100673.41
2022-11-06T07:09:10.887Z,100686.19
2022-11-06T07:19:15.593Z,100685.63
2022-11-06T07:29:18.563Z,100673.38
2022-11-06T07:39:22.774Z,100669.84
2022-11-06T07:49:25.784Z,100660.84
2022-11-06T07:59:29.897Z,100674.84
2022-11-06T08:09:33.009Z,100665.28
2022-11-06T08:19:37.592Z,100638.63
2022-11-06T08:29:41.718Z,100633.44
2022-11-06T08:39:46.288Z,100629.59
2022-11-06T08:49:49.299Z,100629.53
2022-11-06T08:59:53.740Z,100608.69
2022-11-06T09:09:56.754Z,100605.00
2022-11-06T09:20:01.130Z,100588.63
2022-11-06T09:30:04.410Z,100582.22
2022-11-06T09:40:17.017Z,100565.06
2022-11-06T09:50:25.915Z,100551.31
2022-11-06T10:00:30.655Z,100545.00
2022-11-06T10:10:42.570Z,100541.84
2022-11-06T10:20:53.428Z,100543.94
2022-11-06T10:31:04.509Z,100517.81
2022-11-06T10:41:16.549Z,100499.16
2022-11-06T10:51:36.761Z,100475.56
2022-11-06T11:01:41.564Z,100442.91
2022-11-06T11:11:50.746Z,100442.97
2022-11-06T11:21:57.594Z,100400.06
2022-11-06T11:32:03.866Z,100391.88
2022-11-06T11:42:27.367Z,100386.22
2022-11-06T11:52:30.748Z,100353.09
2022-11-06T12:02:41.950Z,100332.47
2022-11-06T12:12:51.195Z,100300.13
2022-11-06T12:22:57.242Z,100276.06
2022-11-06T12:33:11.791Z,100275.34
2022-11-06T12:43:23.597Z,100245.47
2022-11-06T12:53:37.387Z,100222.13
2022-11-06T13:04:11.421Z,100202.00
2022-11-06T13:14:21.994Z,100211.56
2022-11-06T13:24:32.875Z,100199.91
2022-11-06T13:34:39.542Z,100193.81
2022-11-06T13:44:44.038Z,100183.38
2022-11-06T13:55:02.104Z,100162.38
2022-11-06T14:05:45.362Z,100167.66
2022-11-06T14:15:49.339Z,100159.47
2022-11-06T14:26:02.982Z,100157.13
2022-11-06T14:36:27.325Z,100136.97
2022-11-06T14:46:33.047Z,100166.00
2022-11-06T14:56:39.419Z,100178.19
2022-11-06T15:06:46.170Z,100167.31
2022-11-06T15:16:52.113Z,100173.78
2022-11-06T15:27:00.673Z,100175.28
2022-11-06T15:37:11.739Z,100162.81
2022-11-06T15:47:24.380Z,100180.53
2022-11-06T15:57:30.081Z,100160.19
2022-11-06T16:07:34.500Z,100157.44
2022-11-06T16:17:37.685Z,100153.22
2022-11-06T16:27:42.116Z,100101.38
2022-11-06T16:37:45.532Z,100082.50
2022-11-06T16:48:32.668Z,100071.47
2022-11-06T16:58:49.938Z,100067.78
2022-11-06T17:09:09.377Z,100082.72
2022-11-06T17:19:14.469Z,100096.78
2022-11-06T17:29:21.946Z,100071.09
2022-11-06T17:39:26.946Z,100083.16
2022-11-06T17:49:29.956Z,100062.25
2022-11-06T17:59:35.153Z,100054.25
2022-11-06T18:09:38.201Z,100034.59
2022-11-06T18:19:42.351Z,100008.63
2022-11-06T18:29:45.299Z,100004.84
2022-11-06T18:39:49.747Z,100032.72
2022-11-06T18:49:52.738Z,100037.97
2022-11-06T18:59:57.011Z,100020.81
2022-11-06T19:10:00.188Z,100033.44
2022-11-06T19:20:06.730Z,100035.00
2022-11-06T19:30:11.627Z,100061.09
2022-11-06T19:40:16.134Z,100067.66
2022-11-06T19:50:28.783Z,100072.94
2022-11-06T20:00:44.766Z,100071.59
2022-11-06T20:10:47.557Z,100073.50
2022-11-06T20:20:52.328Z,100083.22
2022-11-06T20:30:55.325Z,100094.41
2022-11-06T20:40:59.796Z,100093.81
2022-11-06T20:51:05.302Z,100098.69
2022-11-06T21:01:11.771Z,100131.94
2022-11-06T21:11:16.895Z,100153.22
2022-11-06T21:21:24.598Z,100140.13
2022-11-06T21:31:29.005Z,100169.56
2022-11-06T21:41:34.443Z,100187.53
2022-11-06T21:51:37.689Z,100228.03
2022-11-06T22:01:43.858Z,100239.44
2022-11-06T22:11:46.936Z,100240.84
2022-11-06T22:21:51.055Z,100241.94
2022-11-06T22:31:54.153Z,100239.81
2022-11-06T22:41:58.500Z,100244.91
2022-11-06T22:52:01.840Z,100238.25
2022-11-06T23:02:06.434Z,100238.25
2022-11-06T23:12:09.667Z,100241.78
2022-11-06T23:22:31.039Z,100235.84
2022-11-06T23:32:36.300Z,100254.38
2022-11-06T23:42:40.611Z,100272.41
2022-11-06T23:52:43.630Z,100261.22
